createdAt,value
2019-03-08T00:02:31.383Z,99358.55
2019-03-08T00:05:03.313Z,99371.58
2019-03-08T00:07:35.742Z,99362.40
2019-03-08T00:10:08.272Z,99360.20
2019-03-08T00:12:40.582Z,99348.43
2019-03-08T00:15:14.498Z,99358.83
2019-03-08T00:17:46.871Z,99353.20
2019-03-08T00:20:19.235Z,99363.69
2019-03-08T00:22:51.615Z,99360.13
2019-03-08T00:25:23.986Z,99371.42
2019-03-08T00:27:56.355Z,99371.45
2019-03-08T00:30:30.254Z,99375.87
2019-03-08T00:33:02.640Z,99375.47
2019-03-08T00:35:35.011Z,99362.32
2019-03-08T00:38:07.384Z,99373.28
2019-03-08T00:40:39.749Z,99367.12
2019-03-08T00:43:12.123Z,99369.64
2019-03-08T00:45:44.495Z,99376.61
2019-03-08T00:48:16.866Z,99371.38
2019-03-08T00:50:48.798Z,99377.03
2019-03-08T00:53:21.557Z,99382.19
2019-03-08T00:55:53.886Z,99373.91
2019-03-08T00:58:26.255Z,99381.73
2019-03-08T01:00:58.625Z,99366.00
2019-03-08T01:03:30.998Z,99376.80
2019-03-08T01:06:03.372Z,99380.62
2019-03-08T01:08:35.730Z,99380.62
2019-03-08T01:11:07.642Z,99380.14
2019-03-08T01:13:41.290Z,99389.28
2019-03-08T01:16:13.974Z,99382.75
2019-03-08T01:18:46.346Z,99382.66
2019-03-08T01:21:18.737Z,99385.69
2019-03-08T01:23:52.420Z,99378.67
2019-03-08T01:26:24.797Z,99381.31
2019-03-08T01:28:57.175Z,99375.17
2019-03-08T01:31:30.780Z,99368.58
2019-03-08T01:34:03.141Z,99374.16
2019-03-08T01:36:35.520Z,99372.39
2019-03-08T01:39:09.734Z,99374.19
2019-03-08T01:41:42.212Z,99364.56
2019-03-08T01:44:14.582Z,99338.54
2019-03-08T01:46:46.954Z,99358.55
2019-03-08T01:49:19.845Z,99352.38
2019-03-08T01:51:52.201Z,99357.54
2019-03-08T01:54:24.575Z,99352.80
2019-03-08T01:56:56.490Z,99351.57
2019-03-08T01:59:28.919Z,99351.14
2019-03-08T02:02:01.392Z,99348.50
2019-03-08T02:04:33.751Z,99357.70
2019-03-08T02:07:06.750Z,99352.97
2019-03-08T02:09:39.128Z,99352.55
2019-03-08T02:12:11.698Z,99338.64
2019-03-08T02:14:44.117Z,99340.36
2019-03-08T02:17:16.428Z,99336.02
2019-03-08T02:19:48.801Z,99355.64
2019-03-08T02:22:21.069Z,99323.38
2019-03-08T02:24:53.442Z,99331.67
2019-03-08T02:27:26.019Z,99342.98
2019-03-08T02:29:58.395Z,99322.53
2019-03-08T02:32:30.318Z,99314.70
2019-03-08T02:35:03.245Z,99329.86
2019-03-08T02:37:35.613Z,99327.63
2019-03-08T02:40:31.229Z,99318.89
2019-03-08T02:43:14.249Z,99315.78
2019-03-08T02:45:46.735Z,99315.75
2019-03-08T02:48:19.116Z,99309.68
2019-03-08T02:50:51.474Z,99300.45
2019-03-08T02:53:23.847Z,99300.94
2019-03-08T02:55:56.224Z,99307.08
2019-03-08T02:58:28.595Z,99311.41
2019-03-08T03:01:01.273Z,99308.37
2019-03-08T03:03:33.639Z,99303.16
2019-03-08T03:06:05.903Z,99316.67
2019-03-08T03:08:38.284Z,99311.80
2019-03-08T03:11:10.656Z,99303.91
2019-03-08T03:13:43.026Z,99304.23
2019-03-08T03:16:16.628Z,99305.50
2019-03-08T03:18:48.997Z,99309.41
2019-03-08T03:21:21.417Z,99297.67
2019-03-08T03:23:53.391Z,99302.85
2019-03-08T03:26:26.214Z,99307.61
2019-03-08T03:28:58.589Z,99302.73
2019-03-08T03:31:30.853Z,99305.84
2019-03-08T03:34:03.233Z,99305.00
2019-03-08T03:36:37.129Z,99307.54
2019-03-08T03:39:09.515Z,99303.20
2019-03-08T03:41:41.884Z,99308.38
2019-03-08T03:44:14.662Z,99298.41
2019-03-08T03:46:47.001Z,99304.12
2019-03-08T03:49:19.510Z,99309.27
2019-03-08T03:51:51.883Z,99308.00
2019-03-08T03:54:23.838Z,99302.81
2019-03-08T03:56:56.105Z,99297.56
2019-03-08T03:59:28.492Z,99307.61
2019-03-08T04:02:00.852Z,99305.42
2019-03-08T04:04:33.235Z,99311.98
2019-03-08T04:07:05.602Z,99306.77
2019-03-08T04:09:37.565Z,99293.68
2019-03-08T04:12:10.449Z,99284.61
2019-03-08T04:14:42.826Z,99285.39
2019-03-08T04:17:15.191Z,99288.50
2019-03-08T04:19:47.184Z,99280.59
2019-03-08T04:22:19.528Z,99283.09
2019-03-08T04:24:51.894Z,99274.49
2019-03-08T04:27:24.282Z,99273.64
2019-03-08T04:29:56.746Z,99269.66
2019-03-08T04:32:29.315Z,99273.61
2019-03-08T04:35:02.111Z,99272.73
2019-03-08T04:37:34.468Z,99280.98
2019-03-08T04:40:10.635Z,99269.23
2019-03-08T04:42:42.561Z,99260.17
2019-03-08T04:45:16.812Z,99261.80
2019-03-08T04:47:49.185Z,99266.23
2019-03-08T04:50:21.557Z,99258.34
2019-03-08T04:52:54.950Z,99258.80
2019-03-08T04:55:27.428Z,99254.00
2019-03-08T04:57:59.795Z,99269.30
2019-03-08T05:00:32.171Z,99254.92
2019-03-08T05:03:04.097Z,99262.30
2019-03-08T05:05:36.407Z,99248.42
2019-03-08T05:08:08.976Z,99247.52
2019-03-08T05:10:41.353Z,99247.94
2019-03-08T05:13:13.716Z,99235.70
2019-03-08T05:15:46.096Z,99256.13
2019-03-08T05:18:18.461Z,99242.16
2019-03-08T05:20:50.842Z,99242.58
2019-03-08T05:23:23.216Z,99247.37
2019-03-08T05:25:55.580Z,99245.53
2019-03-08T05:28:27.844Z,99240.74
2019-03-08T05:31:00.740Z,99250.22
2019-03-08T05:33:33.003Z,99243.62
2019-03-08T05:36:05.381Z,99246.73
2019-03-08T05:38:37.303Z,99245.84
2019-03-08T05:41:09.729Z,99243.20
2019-03-08T05:43:42.119Z,99245.81
2019-03-08T05:46:15.173Z,99245.81
2019-03-08T05:48:47.647Z,99243.70
2019-03-08T05:51:20.022Z,99236.72
2019-03-08T05:53:52.318Z,99229.85
2019-03-08T05:56:24.669Z,99242.19
2019-03-08T05:58:57.024Z,99236.05
2019-03-08T06:01:29.294Z,99244.84
2019-03-08T06:04:01.680Z,99237.92
2019-03-08T06:06:34.651Z,99248.88
2019-03-08T06:09:08.339Z,99248.52
2019-03-08T06:11:40.253Z,99247.71
2019-03-08T06:14:12.690Z,99246.89
2019-03-08T06:16:45.072Z,99250.07
2019-03-08T06:19:17.446Z,99256.20
2019-03-08T06:21:49.826Z,99251.52
2019-03-08T06:24:22.287Z,99243.34
2019-03-08T06:26:54.655Z,99242.52
2019-03-08T06:29:27.438Z,99241.79
2019-03-08T06:31:59.806Z,99229.21
2019-03-08T06:34:32.904Z,99237.53
2019-03-08T06:37:05.386Z,99244.11
2019-03-08T06:39:37.754Z,99252.42
2019-03-08T06:42:10.229Z,99254.21
2019-03-08T06:44:42.179Z,99244.23
2019-03-08T06:47:14.613Z,99232.05
2019-03-08T06:49:46.924Z,99243.44
2019-03-08T06:52:19.365Z,99255.22
2019-03-08T06:54:51.782Z,99241.30
2019-03-08T06:57:24.041Z,99248.28
2019-03-08T06:59:57.562Z,99242.62
2019-03-08T07:02:30.305Z,99247.02
2019-03-08T07:05:02.893Z,99260.55
2019-03-08T07:07:35.280Z,99243.13
2019-03-08T07:10:10.208Z,99245.28
2019-03-08T07:12:42.584Z,99257.08
2019-03-08T07:15:14.958Z,99251.44
2019-03-08T07:17:47.314Z,99239.20
2019-03-08T07:20:22.154Z,99246.19
2019-03-08T07:23:12.026Z,99244.02
2019-03-08T07:26:01.838Z,99246.20
2019-03-08T07:28:36.955Z,99268.03
2019-03-08T07:31:26.325Z,99241.83
2019-03-08T07:34:12.664Z,99251.01
2019-03-08T07:36:46.625Z,99254.04
2019-03-08T07:39:36.509Z,99278.12
2019-03-08T07:42:17.682Z,99264.53
2019-03-08T07:44:55.700Z,99250.55
2019-03-08T07:47:45.682Z,99261.05
2019-03-08T07:50:17.315Z,99266.25
2019-03-08T07:53:07.430Z,99275.86
2019-03-08T07:55:58.029Z,99278.45
2019-03-08T07:58:48.306Z,99294.68
2019-03-08T08:01:28.100Z,99262.23
2019-03-08T08:04:00.122Z,99281.03
2019-03-08T08:06:35.155Z,99274.08
2019-03-08T08:09:17.570Z,99279.28
2019-03-08T08:11:57.005Z,99269.63
2019-03-08T08:14:39.656Z,99277.42
2019-03-08T08:17:13.014Z,99288.42
2019-03-08T08:19:59.198Z,99292.33
2019-03-08T08:22:36.075Z,99256.33
2019-03-08T08:25:18.226Z,99271.33
2019-03-08T08:27:56.284Z,99313.83
2019-03-08T08:30:33.067Z,99258.64
2019-03-08T08:33:05.125Z,99346.20
2019-03-08T08:35:39.870Z,99280.56
2019-03-08T08:38:16.534Z,99270.43
2019-03-08T08:40:50.507Z,99287.95
2019-03-08T08:43:27.316Z,99289.27
2019-03-08T08:46:19.553Z,99301.97
2019-03-08T08:49:00.625Z,99318.22
2019-03-08T08:51:50.711Z,99277.97
2019-03-08T08:54:28.831Z,99308.59
2019-03-08T08:57:05.880Z,99298.09
2019-03-08T08:59:39.801Z,99291.05
2019-03-08T09:02:16.358Z,99286.25
2019-03-08T09:05:01.076Z,99298.92
2019-03-08T09:07:46.702Z,99293.70
2019-03-08T09:10:35.267Z,99286.27
2019-03-08T09:13:11.832Z,99293.67
2019-03-08T09:15:57.278Z,99308.98
2019-03-08T09:18:47.603Z,99335.25
2019-03-08T09:21:33.795Z,99309.88
2019-03-08T09:24:16.610Z,99308.13
2019-03-08T09:26:56.562Z,99316.39
2019-03-08T09:29:30.069Z,99321.63
2019-03-08T09:32:09.493Z,99326.02
2019-03-08T09:34:41.517Z,99329.97
2019-03-08T09:37:13.634Z,99333.04
2019-03-08T09:39:45.688Z,99346.61
2019-03-08T09:42:20.837Z,99341.34
2019-03-08T09:44:58.634Z,99350.98
2019-03-08T09:47:35.505Z,99355.80
2019-03-08T09:50:27.446Z,99358.39
2019-03-08T09:53:16.610Z,99379.41
2019-03-08T09:55:56.557Z,99361.44
2019-03-08T09:58:42.441Z,99347.45
2019-03-08T10:01:16.868Z,99369.75
2019-03-08T10:03:49.671Z,99378.05
2019-03-08T10:06:32.863Z,99382.41
2019-03-08T10:09:18.046Z,99381.07
2019-03-08T10:11:51.944Z,99364.86
2019-03-08T10:14:28.928Z,99385.39
2019-03-08T10:17:08.649Z,99409.45
2019-03-08T10:19:45.355Z,99386.67
2019-03-08T10:22:35.222Z,99391.94
2019-03-08T10:25:26.343Z,99417.30
2019-03-08T10:27:57.972Z,99405.92
2019-03-08T10:30:43.899Z,99417.35
2019-03-08T10:33:32.853Z,99415.16
2019-03-08T10:36:04.904Z,99444.98
2019-03-08T10:38:38.819Z,99430.54
2019-03-08T10:41:15.488Z,99428.82
2019-03-08T10:43:52.373Z,99453.34
2019-03-08T10:46:31.771Z,99437.61
2019-03-08T10:49:11.859Z,99463.01
2019-03-08T10:51:45.869Z,99433.23
2019-03-08T10:54:31.662Z,99456.42
2019-03-08T10:57:08.528Z,99462.13
2019-03-08T10:59:42.492Z,99461.22
2019-03-08T11:02:31.715Z,99460.33
2019-03-08T11:05:05.587Z,99463.39
2019-03-08T11:07:44.467Z,99452.91
2019-03-08T11:10:30.221Z,99473.00
2019-03-08T11:13:13.458Z,99462.50
2019-03-08T11:15:59.553Z,99468.58
2019-03-08T11:18:49.536Z,99471.65
2019-03-08T11:21:38.496Z,99476.42
2019-03-08T11:24:22.851Z,99481.25
2019-03-08T11:27:12.415Z,99479.92
2019-03-08T11:29:58.520Z,99477.30
2019-03-08T11:32:33.247Z,99475.11
2019-03-08T11:35:12.366Z,99475.04
2019-03-08T11:37:46.282Z,99473.23
2019-03-08T11:40:35.132Z,99477.59
2019-03-08T11:43:17.656Z,99499.11
2019-03-08T11:46:07.935Z,99468.91
2019-03-08T11:48:44.819Z,99479.74
2019-03-08T11:51:32.042Z,99487.93
2019-03-08T11:54:15.369Z,99494.90
2019-03-08T11:56:55.870Z,99489.37
2019-03-08T11:59:22.985Z,99489.83
2019-03-08T12:02:08.551Z,99505.03
2019-03-08T12:04:42.468Z,99477.47
2019-03-08T12:07:16.367Z,99502.77
2019-03-08T12:10:06.775Z,99466.87
2019-03-08T12:12:40.681Z,99492.77
2019-03-08T12:15:16.422Z,99487.64
2019-03-08T12:17:48.385Z,99483.19
2019-03-08T12:20:28.539Z,99499.86
2019-03-08T12:23:17.092Z,99512.06
2019-03-08T12:25:53.864Z,99506.52
2019-03-08T12:28:25.945Z,99499.49
2019-03-08T12:31:04.039Z,99503.95
2019-03-08T12:33:54.126Z,99491.36
2019-03-08T12:36:36.844Z,99515.42
2019-03-08T12:39:19.256Z,99524.23
2019-03-08T12:41:53.153Z,99508.04
2019-03-08T12:44:29.480Z,99528.17
2019-03-08T12:47:15.226Z,99548.32
2019-03-08T12:50:04.691Z,99510.99
2019-03-08T12:52:55.004Z,99583.80
2019-03-08T12:55:31.640Z,99576.91
2019-03-08T12:58:19.073Z,99585.20
2019-03-08T13:00:55.840Z,99608.48
2019-03-08T13:03:45.827Z,99604.51
2019-03-08T13:06:19.733Z,99601.12
2019-03-08T13:09:02.224Z,99593.50
2019-03-08T13:11:36.060Z,99601.29
2019-03-08T13:14:08.451Z,99583.32
2019-03-08T13:16:40.806Z,99600.81
2019-03-08T13:19:13.163Z,99589.03
2019-03-08T13:21:45.531Z,99578.14
2019-03-08T13:24:17.918Z,99611.34
2019-03-08T13:26:50.178Z,99602.63
2019-03-08T13:29:22.565Z,99612.26
2019-03-08T13:31:54.937Z,99622.31
2019-03-08T13:34:27.293Z,99626.70
2019-03-08T13:37:00.179Z,99628.48
2019-03-08T13:39:32.571Z,99632.40
2019-03-08T13:42:04.934Z,99634.12
2019-03-08T13:44:37.402Z,99641.05
2019-03-08T13:47:09.975Z,99664.58
2019-03-08T13:49:42.361Z,99668.25
2019-03-08T13:52:14.618Z,99689.27
2019-03-08T13:54:47.205Z,99688.75
2019-03-08T13:57:19.462Z,99705.36
2019-03-08T13:59:51.833Z,99717.02
2019-03-08T14:02:23.770Z,99712.13
2019-03-08T14:04:55.756Z,99714.27
2019-03-08T14:07:28.862Z,99722.11
2019-03-08T14:10:01.256Z,99719.55
2019-03-08T14:12:33.277Z,99730.97
2019-03-08T14:15:08.834Z,99719.73
2019-03-08T14:17:41.209Z,99727.63
2019-03-08T14:20:26.488Z,99728.09
2019-03-08T14:22:59.121Z,99736.02
2019-03-08T14:25:31.536Z,99729.53
2019-03-08T14:28:03.900Z,99718.73
2019-03-08T14:30:47.025Z,99730.97
2019-03-08T14:33:19.158Z,99733.17
2019-03-08T14:35:51.562Z,99737.64
2019-03-08T14:38:23.940Z,99745.95
2019-03-08T14:41:04.601Z,99748.14
2019-03-08T14:43:52.492Z,99754.27
2019-03-08T14:46:27.168Z,99793.37
2019-03-08T14:48:59.962Z,99806.05
2019-03-08T14:51:32.329Z,99796.54
2019-03-08T14:54:06.049Z,99795.75
2019-03-08T14:56:38.706Z,99806.88
2019-03-08T14:59:14.908Z,99804.16
2019-03-08T15:01:45.088Z,99810.73
2019-03-08T15:04:17.103Z,99807.25
2019-03-08T15:06:49.421Z,99815.20
2019-03-08T15:09:21.789Z,99830.09
2019-03-08T15:11:55.957Z,99830.50
2019-03-08T15:14:30.242Z,99825.02
2019-03-08T15:17:08.950Z,99839.37
2019-03-08T15:19:39.805Z,99839.01
2019-03-08T15:22:10.096Z,99842.94
2019-03-08T15:24:42.474Z,99835.59
2019-03-08T15:27:14.942Z,99843.13
2019-03-08T15:29:54.206Z,99845.87
2019-03-08T15:32:20.814Z,99850.31
2019-03-08T15:34:53.249Z,99854.01
2019-03-08T15:37:25.667Z,99857.45
2019-03-08T15:39:59.159Z,99861.89
2019-03-08T15:42:31.542Z,99872.36
2019-03-08T15:45:05.791Z,99872.88
2019-03-08T15:47:38.323Z,99884.23
2019-03-08T15:50:20.110Z,99884.76
2019-03-08T15:52:52.489Z,99882.58
2019-03-08T15:55:24.858Z,99879.48
2019-03-08T15:57:57.241Z,99888.67
2019-03-08T16:00:29.608Z,99904.78
2019-03-08T16:03:02.083Z,99893.55
2019-03-08T16:05:34.459Z,99892.25
2019-03-08T16:08:06.820Z,99906.16
2019-03-08T16:10:39.250Z,99903.13
2019-03-08T16:13:11.662Z,99912.80
2019-03-08T16:15:44.035Z,99920.70
2019-03-08T16:18:17.927Z,99927.23
2019-03-08T16:20:50.521Z,99928.66
2019-03-08T16:23:22.902Z,99933.83
2019-03-08T16:25:55.273Z,99946.95
2019-03-08T16:28:27.650Z,99952.08
2019-03-08T16:31:03.720Z,99960.38
2019-03-08T16:33:40.330Z,99953.43
2019-03-08T16:36:29.055Z,99966.03
2019-03-08T16:39:12.705Z,99979.10
2019-03-08T16:41:49.133Z,99977.66
2019-03-08T16:44:40.854Z,99990.66
2019-03-08T16:47:31.054Z,100003.19
2019-03-08T16:50:15.094Z,99989.58
2019-03-08T16:53:02.113Z,100007.47
2019-03-08T16:55:35.370Z,100008.62
2019-03-08T16:58:18.189Z,100020.23
2019-03-08T17:01:07.177Z,100018.31
2019-03-08T17:03:57.070Z,100019.95
2019-03-08T17:06:46.840Z,100041.04
2019-03-08T17:09:23.525Z,100045.22
2019-03-08T17:11:57.444Z,100043.84
2019-03-08T17:14:47.311Z,100061.55
2019-03-08T17:17:32.167Z,100063.05
2019-03-08T17:20:16.923Z,100073.81
2019-03-08T17:23:06.980Z,100086.91
2019-03-08T17:25:56.704Z,100084.63
2019-03-08T17:28:33.379Z,100090.60
2019-03-08T17:31:07.376Z,100097.70
2019-03-08T17:33:51.643Z,100102.76
2019-03-08T17:36:34.751Z,100109.81
2019-03-08T17:39:20.650Z,100117.50
2019-03-08T17:42:03.467Z,100119.09
2019-03-08T17:44:35.943Z,100122.78
2019-03-08T17:47:21.364Z,100145.34
2019-03-08T17:50:01.461Z,100145.67
2019-03-08T17:52:46.947Z,100152.56
2019-03-08T17:55:20.956Z,100154.19
2019-03-08T17:58:10.534Z,100162.05
2019-03-08T18:00:59.495Z,100162.98
2019-03-08T18:03:35.864Z,100167.64
2019-03-08T18:06:12.360Z,100169.28
2019-03-08T18:08:46.239Z,100176.16
2019-03-08T18:11:18.513Z,100173.84
2019-03-08T18:13:58.039Z,100179.69
2019-03-08T18:16:48.128Z,100188.66
2019-03-08T18:19:27.871Z,100194.25
2019-03-08T18:21:59.943Z,100195.88
2019-03-08T18:24:52.304Z,100200.68
2019-03-08T18:27:29.682Z,100207.08
2019-03-08T18:30:06.876Z,100210.51
2019-03-08T18:32:40.058Z,100208.81
2019-03-08T18:35:18.055Z,100208.58
2019-03-08T18:37:49.820Z,100213.11
2019-03-08T18:40:29.955Z,100219.03
2019-03-08T18:43:03.917Z,100218.11
2019-03-08T18:45:41.158Z,100221.09
2019-03-08T18:48:31.546Z,100220.62
2019-03-08T18:51:18.363Z,100225.12
2019-03-08T18:54:10.090Z,100227.13
2019-03-08T18:57:02.011Z,100229.54
2019-03-08T18:59:34.085Z,100228.70
2019-03-08T19:02:08.908Z,100232.58
2019-03-08T19:04:42.790Z,100239.78
2019-03-08T19:07:16.722Z,100240.27
2019-03-08T19:10:07.118Z,100237.66
2019-03-08T19:12:44.103Z,100239.88
2019-03-08T19:15:27.938Z,100244.92
2019-03-08T19:18:18.333Z,100255.50
2019-03-08T19:21:06.892Z,100259.22
2019-03-08T19:23:46.153Z,100260.72
2019-03-08T19:26:25.871Z,100262.73
2019-03-08T19:28:59.769Z,100273.06
2019-03-08T19:31:36.658Z,100276.27
2019-03-08T19:34:08.720Z,100285.48
2019-03-08T19:36:43.760Z,100288.05
2019-03-08T19:39:17.668Z,100292.62
2019-03-08T19:41:52.584Z,100292.92
2019-03-08T19:44:26.606Z,100303.10
2019-03-08T19:47:09.409Z,100297.59
2019-03-08T19:49:45.408Z,100308.37
2019-03-08T19:52:20.508Z,100312.87
2019-03-08T19:54:54.418Z,100307.96
2019-03-08T19:57:37.181Z,100321.63
2019-03-08T20:00:33.676Z,100323.30
2019-03-08T20:03:07.675Z,100317.02
2019-03-08T20:05:56.431Z,100321.99
2019-03-08T20:08:39.058Z,100324.03
2019-03-08T20:11:15.622Z,100325.38
2019-03-08T20:14:04.474Z,100320.36
2019-03-08T20:16:44.115Z,100324.74
2019-03-08T20:19:18.148Z,100326.66
2019-03-08T20:21:52.348Z,100318.13
2019-03-08T20:24:33.746Z,100335.55
2019-03-08T20:27:07.839Z,100333.44
2019-03-08T20:29:41.846Z,100345.42
2019-03-08T20:32:30.092Z,100342.83
2019-03-08T20:35:02.163Z,100347.45
2019-03-08T20:37:40.570Z,100352.45
2019-03-08T20:40:15.603Z,100352.81
2019-03-08T20:42:52.388Z,100357.07
2019-03-08T20:45:26.700Z,100363.32
2019-03-08T20:47:59.072Z,100354.46
2019-03-08T20:50:31.156Z,100372.93
2019-03-08T20:53:03.513Z,100370.73
2019-03-08T20:55:35.504Z,100379.66
2019-03-08T20:58:07.435Z,100378.59
2019-03-08T21:00:39.418Z,100376.81
2019-03-08T21:03:11.763Z,100374.56
2019-03-08T21:05:44.133Z,100379.63
2019-03-08T21:08:16.726Z,100372.30
2019-03-08T21:10:49.093Z,100382.61
2019-03-08T21:13:22.893Z,100387.98
2019-03-08T21:15:56.707Z,100391.80
2019-03-08T21:18:29.379Z,100397.17
2019-03-08T21:21:02.056Z,100397.44
2019-03-08T21:23:33.976Z,100404.15
2019-03-08T21:26:06.393Z,100401.61
2019-03-08T21:28:38.774Z,100403.94
2019-03-08T21:31:11.132Z,100399.50
2019-03-08T21:33:43.062Z,100398.66
2019-03-08T21:36:15.468Z,100402.98
2019-03-08T21:38:50.810Z,100407.55
2019-03-08T21:41:23.176Z,100405.98
2019-03-08T21:43:55.568Z,100408.36
2019-03-08T21:46:27.926Z,100413.28
2019-03-08T21:48:59.845Z,100412.74
2019-03-08T21:51:33.125Z,100410.88
2019-03-08T21:54:05.446Z,100410.55
2019-03-08T21:56:37.818Z,100413.28
2019-03-08T21:59:11.433Z,100415.80
2019-03-08T22:01:43.802Z,100416.91
2019-03-08T22:04:17.705Z,100428.10
2019-03-08T22:06:50.141Z,100424.56
2019-03-08T22:09:39.595Z,100422.38
2019-03-08T22:12:12.021Z,100430.16
2019-03-08T22:14:43.955Z,100428.59
2019-03-08T22:17:16.376Z,100434.19
2019-03-08T22:19:49.039Z,100429.17
2019-03-08T22:22:21.421Z,100427.13
2019-03-08T22:24:53.957Z,100432.80
2019-03-08T22:27:27.902Z,100429.98
2019-03-08T22:30:00.678Z,100422.73
2019-03-08T22:32:34.168Z,100419.33
2019-03-08T22:35:07.315Z,100422.41
2019-03-08T22:37:39.730Z,100432.71
2019-03-08T22:40:13.843Z,100432.03
2019-03-08T22:42:46.549Z,100430.77
2019-03-08T22:45:18.790Z,100434.17
2019-03-08T22:47:51.173Z,100435.30
2019-03-08T22:50:23.847Z,100429.66
2019-03-08T22:52:56.226Z,100426.13
2019-03-08T22:55:28.485Z,100425.00
2019-03-08T22:58:00.860Z,100420.77
2019-03-08T23:00:54.836Z,100420.53
2019-03-08T23:03:29.656Z,100425.83
2019-03-08T23:06:03.266Z,100425.77
2019-03-08T23:08:36.055Z,100435.44
2019-03-08T23:11:08.419Z,100432.31
2019-03-08T23:13:40.793Z,100429.67
2019-03-08T23:16:13.276Z,100433.97
2019-03-08T23:18:45.846Z,100437.27
2019-03-08T23:21:18.223Z,100436.65
2019-03-08T23:23:50.707Z,100439.66
2019-03-08T23:26:23.076Z,100424.52
2019-03-08T23:29:10.280Z,100426.13
2019-03-08T23:31:47.166Z,100423.75
2019-03-08T23:34:19.543Z,100425.67
2019-03-08T23:36:52.113Z,100422.27
2019-03-08T23:39:24.474Z,100417.97
2019-03-08T23:41:56.853Z,100416.19
2019-03-08T23:44:29.231Z,100416.00
2019-03-08T23:47:05.074Z,100414.62
2019-03-08T23:49:38.980Z,100413.05
2019-03-08T23:52:11.363Z,100412.45
2019-03-08T23:54:43.727Z,100411.30
2019-03-08T23:57:16.612Z,100418.38
2019-03-08T23:59:48.991Z,100416.19
